sensor_id;sensor_type;location;lat;lon;timestamp;P1;durP1;ratioP1;P2;durP2;ratioP2
50745;SDS011;36711;51.972;21.204;2023-01-04T00:02:26;5.10;;;2.60;;
50745;SDS011;36711;51.972;21.204;2023-01-04T00:04:55;7.10;;;3.10;;
50745;SDS011;36711;51.972;21.204;2023-01-04T00:07:24;7.50;;;3.10;;
50745;SDS011;36711;51.972;21.204;2023-01-04T00:09:53;7.30;;;3.60;;
50745;SDS011;36711;51.972;21.204;2023-01-04T00:12:22;8.90;;;3.50;;
50745;SDS011;36711;51.972;21.204;2023-01-04T00:14:51;9.20;;;3.40;;
50745;SDS011;36711;51.972;21.204;2023-01-04T00:17:20;6.90;;;3.40;;
50745;SDS011;36711;51.972;21.204;2023-01-04T00:19:48;6.20;;;2.60;;
50745;SDS011;36711;51.972;21.204;2023-01-04T00:22:17;6.00;;;3.20;;
50745;SDS011;36711;51.972;21.204;2023-01-04T00:24:46;8.60;;;3.70;;
50745;SDS011;36711;51.972;21.204;2023-01-04T00:27:14;7.50;;;3.60;;
50745;SDS011;36711;51.972;21.204;2023-01-04T00:29:43;10.70;;;4.00;;
50745;SDS011;36711;51.972;21.204;2023-01-04T00:32:12;7.60;;;3.80;;
50745;SDS011;36711;51.972;21.204;2023-01-04T00:34:41;7.30;;;3.50;;
50745;SDS011;36711;51.972;21.204;2023-01-04T00:37:10;5.80;;;3.40;;
50745;SDS011;36711;51.972;21.204;2023-01-04T00:39:38;6.20;;;3.50;;
50745;SDS011;36711;51.972;21.204;2023-01-04T00:42:07;9.10;;;4.10;;
50745;SDS011;36711;51.972;21.204;2023-01-04T00:44:36;8.10;;;4.00;;
50745;SDS011;36711;51.972;21.204;2023-01-04T00:47:04;8.50;;;4.30;;
50745;SDS011;36711;51.972;21.204;2023-01-04T00:49:33;10.80;;;4.00;;
50745;SDS011;36711;51.972;21.204;2023-01-04T00:52:02;11.70;;;4.90;;
50745;SDS011;36711;51.972;21.204;2023-01-04T00:54:31;14.10;;;4.90;;
50745;SDS011;36711;51.972;21.204;2023-01-04T00:56:59;12.20;;;5.20;;
50745;SDS011;36711;51.972;21.204;2023-01-04T00:59:28;9.60;;;4.30;;
50745;SDS011;36711;51.972;21.204;2023-01-04T01:01:57;12.50;;;4.80;;
50745;SDS011;36711;51.972;21.204;2023-01-04T01:04:27;11.90;;;5.00;;
50745;SDS011;36711;51.972;21.204;2023-01-04T01:06:55;14.10;;;4.40;;
50745;SDS011;36711;51.972;21.204;2023-01-04T01:09:25;11.70;;;4.30;;
50745;SDS011;36711;51.972;21.204;2023-01-04T01:11:54;11.40;;;4.50;;
50745;SDS011;36711;51.972;21.204;2023-01-04T01:14:23;10.20;;;4.60;;
50745;SDS011;36711;51.972;21.204;2023-01-04T01:16:52;11.40;;;4.50;;
50745;SDS011;36711;51.972;21.204;2023-01-04T01:21:54;8.60;;;4.30;;
50745;SDS011;36711;51.972;21.204;2023-01-04T01:24:25;14.90;;;4.90;;
50745;SDS011;36711;51.972;21.204;2023-01-04T01:26:54;9.80;;;4.40;;
50745;SDS011;36711;51.972;21.204;2023-01-04T01:29:23;9.10;;;4.20;;
50745;SDS011;36711;51.972;21.204;2023-01-04T01:31:52;10.30;;;4.20;;
50745;SDS011;36711;51.972;21.204;2023-01-04T01:34:22;10.60;;;4.60;;
50745;SDS011;36711;51.972;21.204;2023-01-04T01:36:50;9.60;;;4.10;;
50745;SDS011;36711;51.972;21.204;2023-01-04T01:39:19;8.30;;;4.50;;
50745;SDS011;36711;51.972;21.204;2023-01-04T01:41:48;7.80;;;3.80;;
50745;SDS011;36711;51.972;21.204;2023-01-04T01:47:04;8.90;;;4.20;;
50745;SDS011;36711;51.972;21.204;2023-01-04T01:49:34;10.30;;;4.20;;
50745;SDS011;36711;51.972;21.204;2023-01-04T01:52:10;9.10;;;4.40;;
50745;SDS011;36711;51.972;21.204;2023-01-04T01:54:42;8.30;;;4.50;;
50745;SDS011;36711;51.972;21.204;2023-01-04T01:57:16;9.80;;;4.60;;
50745;SDS011;36711;51.972;21.204;2023-01-04T01:59:46;9.70;;;5.00;;
50745;SDS011;36711;51.972;21.204;2023-01-04T02:02:16;12.00;;;4.70;;
50745;SDS011;36711;51.972;21.204;2023-01-04T02:04:47;10.20;;;4.30;;
50745;SDS011;36711;51.972;21.204;2023-01-04T02:07:18;8.40;;;4.60;;
50745;SDS011;36711;51.972;21.204;2023-01-04T02:09:48;7.80;;;4.70;;
50745;SDS011;36711;51.972;21.204;2023-01-04T02:12:17;9.40;;;4.70;;
50745;SDS011;36711;51.972;21.204;2023-01-04T02:14:46;10.30;;;4.40;;
50745;SDS011;36711;51.972;21.204;2023-01-04T02:17:21;7.30;;;4.40;;
50745;SDS011;36711;51.972;21.204;2023-01-04T02:27:53;7.40;;;4.50;;
50745;SDS011;36711;51.972;21.204;2023-01-04T02:30:30;12.90;;;4.60;;
50745;SDS011;36711;51.972;21.204;2023-01-04T02:46:27;11.30;;;4.70;;
50745;SDS011;36711;51.972;21.204;2023-01-04T02:48:58;11.80;;;4.80;;
50745;SDS011;36711;51.972;21.204;2023-01-04T02:51:45;10.10;;;4.60;;
50745;SDS011;36711;51.972;21.204;2023-01-04T02:54:17;10.50;;;4.80;;
50745;SDS011;36711;51.972;21.204;2023-01-04T02:59:36;10.30;;;5.30;;
50745;SDS011;36711;51.972;21.204;2023-01-04T03:07:53;8.70;;;4.70;;
50745;SDS011;36711;51.972;21.204;2023-01-04T03:10:34;11.00;;;5.70;;
50745;SDS011;36711;51.972;21.204;2023-01-04T03:13:18;12.00;;;5.50;;
50745;SDS011;36711;51.972;21.204;2023-01-04T03:15:50;12.50;;;6.30;;
50745;SDS011;36711;51.972;21.204;2023-01-04T03:18:31;13.20;;;5.50;;
50745;SDS011;36711;51.972;21.204;2023-01-04T03:21:01;11.00;;;5.60;;
50745;SDS011;36711;51.972;21.204;2023-01-04T03:23:33;11.30;;;5.70;;
50745;SDS011;36711;51.972;21.204;2023-01-04T03:26:23;9.30;;;5.00;;
50745;SDS011;36711;51.972;21.204;2023-01-04T03:29:14;11.10;;;5.20;;
50745;SDS011;36711;51.972;21.204;2023-01-04T03:32:05;10.60;;;6.10;;
50745;SDS011;36711;51.972;21.204;2023-01-04T03:34:53;11.20;;;5.50;;
50745;SDS011;36711;51.972;21.204;2023-01-04T03:40:16;16.90;;;6.00;;
50745;SDS011;36711;51.972;21.204;2023-01-04T03:45:54;14.60;;;5.70;;
50745;SDS011;36711;51.972;21.204;2023-01-04T03:48:52;14.20;;;6.00;;
50745;SDS011;36711;51.972;21.204;2023-01-04T03:51:24;11.70;;;5.80;;
50745;SDS011;36711;51.972;21.204;2023-01-04T03:54:07;10.40;;;6.20;;
50745;SDS011;36711;51.972;21.204;2023-01-04T03:59:05;11.30;;;5.70;;
50745;SDS011;36711;51.972;21.204;2023-01-04T04:01:34;14.20;;;6.50;;
50745;SDS011;36711;51.972;21.204;2023-01-04T04:04:03;15.30;;;6.70;;
50745;SDS011;36711;51.972;21.204;2023-01-04T04:06:51;14.00;;;6.70;;
50745;SDS011;36711;51.972;21.204;2023-01-04T04:09:39;15.70;;;7.20;;
50745;SDS011;36711;51.972;21.204;2023-01-04T04:12:07;12.10;;;6.30;;
50745;SDS011;36711;51.972;21.204;2023-01-04T04:14:36;14.70;;;6.50;;
50745;SDS011;36711;51.972;21.204;2023-01-04T04:17:05;15.40;;;6.80;;
50745;SDS011;36711;51.972;21.204;2023-01-04T04:19:34;13.10;;;7.20;;
50745;SDS011;36711;51.972;21.204;2023-01-04T04:22:03;17.00;;;6.90;;
50745;SDS011;36711;51.972;21.204;2023-01-04T04:24:31;12.50;;;6.70;;
50745;SDS011;36711;51.972;21.204;2023-01-04T04:27:00;14.20;;;6.50;;
50745;SDS011;36711;51.972;21.204;2023-01-04T04:29:29;15.70;;;6.60;;
50745;SDS011;36711;51.972;21.204;2023-01-04T04:31:58;15.80;;;7.60;;
50745;SDS011;36711;51.972;21.204;2023-01-04T04:34:27;13.50;;;7.00;;
50745;SDS011;36711;51.972;21.204;2023-01-04T04:36:55;13.90;;;6.20;;
50745;SDS011;36711;51.972;21.204;2023-01-04T04:39:24;16.00;;;7.60;;
50745;SDS011;36711;51.972;21.204;2023-01-04T04:41:53;16.60;;;7.60;;
50745;SDS011;36711;51.972;21.204;2023-01-04T04:44:22;13.40;;;7.00;;
50745;SDS011;36711;51.972;21.204;2023-01-04T04:46:50;16.40;;;7.20;;
50745;SDS011;36711;51.972;21.204;2023-01-04T04:49:19;11.40;;;6.30;;
50745;SDS011;36711;51.972;21.204;2023-01-04T04:51:48;14.50;;;7.20;;
50745;SDS011;36711;51.972;21.204;2023-01-04T04:54:17;15.60;;;6.80;;
50745;SDS011;36711;51.972;21.204;2023-01-04T04:56:47;15.00;;;6.90;;
50745;SDS011;36711;51.972;21.204;2023-01-04T04:59:16;14.60;;;7.00;;
50745;SDS011;36711;51.972;21.204;2023-01-04T05:01:44;17.20;;;7.40;;
50745;SDS011;36711;51.972;21.204;2023-01-04T05:04:16;17.90;;;7.40;;
50745;SDS011;36711;51.972;21.204;2023-01-04T05:06:47;17.40;;;8.00;;
50745;SDS011;36711;51.972;21.204;2023-01-04T05:09:17;18.60;;;7.90;;
50745;SDS011;36711;51.972;21.204;2023-01-04T05:11:46;13.60;;;6.90;;
50745;SDS011;36711;51.972;21.204;2023-01-04T05:14:33;15.90;;;7.60;;
50745;SDS011;36711;51.972;21.204;2023-01-04T05:17:02;16.60;;;8.00;;
50745;SDS011;36711;51.972;21.204;2023-01-04T05:19:31;15.30;;;7.80;;
50745;SDS011;36711;51.972;21.204;2023-01-04T05:22:00;13.60;;;7.50;;
50745;SDS011;36711;51.972;21.204;2023-01-04T05:24:29;15.40;;;7.60;;
50745;SDS011;36711;51.972;21.204;2023-01-04T05:26:57;18.70;;;8.40;;
50745;SDS011;36711;51.972;21.204;2023-01-04T05:29:26;16.90;;;8.10;;
50745;SDS011;36711;51.972;21.204;2023-01-04T05:32:14;21.00;;;8.60;;
50745;SDS011;36711;51.972;21.204;2023-01-04T05:34:43;21.10;;;9.60;;
50745;SDS011;36711;51.972;21.204;2023-01-04T05:37:12;15.80;;;8.80;;
50745;SDS011;36711;51.972;21.204;2023-01-04T05:39:41;19.10;;;8.80;;
50745;SDS011;36711;51.972;21.204;2023-01-04T05:42:09;17.30;;;8.90;;
50745;SDS011;36711;51.972;21.204;2023-01-04T05:44:54;16.10;;;8.10;;
50745;SDS011;36711;51.972;21.204;2023-01-04T05:47:25;17.40;;;8.20;;
50745;SDS011;36711;51.972;21.204;2023-01-04T05:49:54;17.10;;;8.40;;
50745;SDS011;36711;51.972;21.204;2023-01-04T05:52:23;16.90;;;8.00;;
50745;SDS011;36711;51.972;21.204;2023-01-04T05:54:52;22.20;;;8.60;;
50745;SDS011;36711;51.972;21.204;2023-01-04T05:57:20;20.00;;;8.30;;
50745;SDS011;36711;51.972;21.204;2023-01-04T05:59:49;19.90;;;8.70;;
50745;SDS011;36711;51.972;21.204;2023-01-04T06:02:19;16.90;;;8.10;;
50745;SDS011;36711;51.972;21.204;2023-01-04T06:04:48;17.60;;;8.30;;
50745;SDS011;36711;51.972;21.204;2023-01-04T06:07:26;16.80;;;8.10;;
50745;SDS011;36711;51.972;21.204;2023-01-04T06:09:56;20.20;;;8.80;;
50745;SDS011;36711;51.972;21.204;2023-01-04T06:12:24;18.90;;;8.20;;
50745;SDS011;36711;51.972;21.204;2023-01-04T06:14:53;17.40;;;8.10;;
50745;SDS011;36711;51.972;21.204;2023-01-04T06:17:22;16.50;;;8.10;;
50745;SDS011;36711;51.972;21.204;2023-01-04T06:19:51;17.30;;;8.90;;
50745;SDS011;36711;51.972;21.204;2023-01-04T06:22:19;20.20;;;9.00;;
50745;SDS011;36711;51.972;21.204;2023-01-04T06:24:48;15.80;;;7.80;;
50745;SDS011;36711;51.972;21.204;2023-01-04T06:27:17;18.20;;;8.50;;
50745;SDS011;36711;51.972;21.204;2023-01-04T06:29:46;15.40;;;8.20;;
50745;SDS011;36711;51.972;21.204;2023-01-04T06:32:16;18.70;;;8.60;;
50745;SDS011;36711;51.972;21.204;2023-01-04T06:34:45;17.50;;;8.60;;
50745;SDS011;36711;51.972;21.204;2023-01-04T06:37:16;15.20;;;8.30;;
50745;SDS011;36711;51.972;21.204;2023-01-04T06:39:45;20.20;;;8.40;;
50745;SDS011;36711;51.972;21.204;2023-01-04T06:42:14;21.90;;;8.70;;
50745;SDS011;36711;51.972;21.204;2023-01-04T06:45:06;18.60;;;8.90;;
50745;SDS011;36711;51.972;21.204;2023-01-04T06:47:35;19.90;;;9.00;;
50745;SDS011;36711;51.972;21.204;2023-01-04T06:50:04;16.90;;;8.50;;
50745;SDS011;36711;51.972;21.204;2023-01-04T06:52:33;19.70;;;9.30;;
50745;SDS011;36711;51.972;21.204;2023-01-04T06:55:01;18.20;;;8.40;;
50745;SDS011;36711;51.972;21.204;2023-01-04T06:57:30;20.30;;;9.10;;
50745;SDS011;36711;51.972;21.204;2023-01-04T06:59:59;21.10;;;9.20;;
50745;SDS011;36711;51.972;21.204;2023-01-04T07:02:28;20.10;;;8.70;;
50745;SDS011;36711;51.972;21.204;2023-01-04T07:04:57;21.30;;;8.70;;
50745;SDS011;36711;51.972;21.204;2023-01-04T07:07:26;15.90;;;8.40;;
50745;SDS011;36711;51.972;21.204;2023-01-04T07:09:55;20.50;;;8.90;;
50745;SDS011;36711;51.972;21.204;2023-01-04T07:12:24;20.30;;;8.70;;
50745;SDS011;36711;51.972;21.204;2023-01-04T07:14:53;17.70;;;8.30;;
50745;SDS011;36711;51.972;21.204;2023-01-04T07:17:22;16.50;;;8.40;;
50745;SDS011;36711;51.972;21.204;2023-01-04T07:19:57;14.80;;;8.10;;
50745;SDS011;36711;51.972;21.204;2023-01-04T07:22:26;18.20;;;7.90;;
50745;SDS011;36711;51.972;21.204;2023-01-04T07:24:55;19.50;;;8.70;;
50745;SDS011;36711;51.972;21.204;2023-01-04T07:27:24;14.60;;;8.00;;
50745;SDS011;36711;51.972;21.204;2023-01-04T07:29:53;21.60;;;8.30;;
50745;SDS011;36711;51.972;21.204;2023-01-04T07:32:22;17.30;;;7.70;;
50745;SDS011;36711;51.972;21.204;2023-01-04T07:34:50;15.30;;;8.10;;
50745;SDS011;36711;51.972;21.204;2023-01-04T07:37:19;13.00;;;8.10;;
50745;SDS011;36711;51.972;21.204;2023-01-04T07:39:48;15.20;;;7.80;;
50745;SDS011;36711;51.972;21.204;2023-01-04T07:42:17;14.90;;;7.50;;
50745;SDS011;36711;51.972;21.204;2023-01-04T07:44:47;19.60;;;8.20;;
50745;SDS011;36711;51.972;21.204;2023-01-04T07:47:16;15.30;;;7.90;;
50745;SDS011;36711;51.972;21.204;2023-01-04T07:49:45;16.60;;;8.70;;
50745;SDS011;36711;51.972;21.204;2023-01-04T07:52:16;16.60;;;8.00;;
50745;SDS011;36711;51.972;21.204;2023-01-04T07:54:45;17.10;;;8.30;;
50745;SDS011;36711;51.972;21.204;2023-01-04T07:57:13;14.10;;;7.60;;
50745;SDS011;36711;51.972;21.204;2023-01-04T07:59:42;16.70;;;7.30;;
50745;SDS011;36711;51.972;21.204;2023-01-04T08:02:11;16.20;;;8.20;;
50745;SDS011;36711;51.972;21.204;2023-01-04T08:04:40;13.00;;;7.30;;
50745;SDS011;36711;51.972;21.204;2023-01-04T08:07:09;15.40;;;7.40;;
50745;SDS011;36711;51.972;21.204;2023-01-04T08:09:38;13.00;;;7.50;;
50745;SDS011;36711;51.972;21.204;2023-01-04T08:12:06;13.00;;;7.60;;
50745;SDS011;36711;51.972;21.204;2023-01-04T08:14:35;14.90;;;7.40;;
50745;SDS011;36711;51.972;21.204;2023-01-04T08:17:04;12.20;;;6.90;;
50745;SDS011;36711;51.972;21.204;2023-01-04T08:19:33;13.10;;;7.20;;
50745;SDS011;36711;51.972;21.204;2023-01-04T08:22:01;13.10;;;7.10;;
50745;SDS011;36711;51.972;21.204;2023-01-04T08:24:30;14.20;;;7.90;;
50745;SDS011;36711;51.972;21.204;2023-01-04T08:26:59;14.80;;;7.40;;
50745;SDS011;36711;51.972;21.204;2023-01-04T08:29:28;13.40;;;7.50;;
50745;SDS011;36711;51.972;21.204;2023-01-04T08:32:02;14.20;;;7.70;;
50745;SDS011;36711;51.972;21.204;2023-01-04T08:34:31;12.00;;;8.30;;
50745;SDS011;36711;51.972;21.204;2023-01-04T08:37:00;16.30;;;8.50;;
50745;SDS011;36711;51.972;21.204;2023-01-04T08:39:28;13.80;;;8.80;;
50745;SDS011;36711;51.972;21.204;2023-01-04T08:42:01;12.10;;;7.70;;
50745;SDS011;36711;51.972;21.204;2023-01-04T08:44:46;11.90;;;7.80;;
50745;SDS011;36711;51.972;21.204;2023-01-04T08:47:15;11.40;;;7.50;;
50745;SDS011;36711;51.972;21.204;2023-01-04T08:49:44;12.80;;;7.40;;
50745;SDS011;36711;51.972;21.204;2023-01-04T08:52:12;12.40;;;7.30;;
50745;SDS011;36711;51.972;21.204;2023-01-04T08:54:43;12.50;;;7.40;;
50745;SDS011;36711;51.972;21.204;2023-01-04T08:57:12;11.00;;;7.00;;
50745;SDS011;36711;51.972;21.204;2023-01-04T08:59:40;11.70;;;7.10;;
50745;SDS011;36711;51.972;21.204;2023-01-04T09:02:20;8.80;;;6.50;;
50745;SDS011;36711;51.972;21.204;2023-01-04T09:04:49;10.40;;;6.20;;
50745;SDS011;36711;51.972;21.204;2023-01-04T09:07:19;9.20;;;6.40;;
50745;SDS011;36711;51.972;21.204;2023-01-04T09:09:47;10.50;;;6.70;;
50745;SDS011;36711;51.972;21.204;2023-01-04T09:12:16;10.80;;;5.90;;
50745;SDS011;36711;51.972;21.204;2023-01-04T09:14:45;8.70;;;5.80;;
50745;SDS011;36711;51.972;21.204;2023-01-04T09:17:14;9.00;;;6.10;;
50745;SDS011;36711;51.972;21.204;2023-01-04T09:19:42;7.90;;;5.20;;
50745;SDS011;36711;51.972;21.204;2023-01-04T09:22:11;9.10;;;5.80;;
50745;SDS011;36711;51.972;21.204;2023-01-04T09:24:40;6.60;;;5.50;;
50745;SDS011;36711;51.972;21.204;2023-01-04T09:27:09;8.40;;;5.40;;
50745;SDS011;36711;51.972;21.204;2023-01-04T09:29:37;7.20;;;5.50;;
50745;SDS011;36711;51.972;21.204;2023-01-04T09:32:06;6.60;;;5.20;;
50745;SDS011;36711;51.972;21.204;2023-01-04T09:34:43;8.30;;;5.50;;
50745;SDS011;36711;51.972;21.204;2023-01-04T09:37:12;6.90;;;5.30;;
50745;SDS011;36711;51.972;21.204;2023-01-04T09:39:41;8.70;;;5.20;;
50745;SDS011;36711;51.972;21.204;2023-01-04T09:42:21;8.10;;;5.70;;
50745;SDS011;36711;51.972;21.204;2023-01-04T09:45:16;6.70;;;4.90;;
50745;SDS011;36711;51.972;21.204;2023-01-04T09:47:57;7.60;;;5.00;;
50745;SDS011;36711;51.972;21.204;2023-01-04T09:50:29;9.10;;;5.30;;
50745;SDS011;36711;51.972;21.204;2023-01-04T09:53:14;6.50;;;4.80;;
50745;SDS011;36711;51.972;21.204;2023-01-04T09:55:48;6.70;;;4.70;;
50745;SDS011;36711;51.972;21.204;2023-01-04T09:58:28;6.20;;;4.50;;
50745;SDS011;36711;51.972;21.204;2023-01-04T10:01:02;11.10;;;9.10;;
50745;SDS011;36711;51.972;21.204;2023-01-04T10:03:36;6.90;;;5.00;;
50745;SDS011;36711;51.972;21.204;2023-01-04T10:06:09;11.20;;;5.50;;
50745;SDS011;36711;51.972;21.204;2023-01-04T10:08:40;9.40;;;5.40;;
50745;SDS011;36711;51.972;21.204;2023-01-04T10:22:25;10.80;;;5.60;;
50745;SDS011;36711;51.972;21.204;2023-01-04T10:27:45;27.90;;;25.30;;
50745;SDS011;36711;51.972;21.204;2023-01-04T10:30:20;18.50;;;15.10;;
50745;SDS011;36711;51.972;21.204;2023-01-04T10:33:08;58.80;;;30.50;;
50745;SDS011;36711;51.972;21.204;2023-01-04T10:35:38;62.60;;;34.50;;
50745;SDS011;36711;51.972;21.204;2023-01-04T10:38:16;67.50;;;32.90;;
50745;SDS011;36711;51.972;21.204;2023-01-04T10:40:46;17.20;;;9.50;;
50745;SDS011;36711;51.972;21.204;2023-01-04T10:43:20;29.60;;;25.70;;
50745;SDS011;36711;51.972;21.204;2023-01-04T10:45:53;9.10;;;6.40;;
50745;SDS011;36711;51.972;21.204;2023-01-04T10:51:13;24.30;;;12.60;;
50745;SDS011;36711;51.972;21.204;2023-01-04T10:53:48;7.90;;;5.60;;
50745;SDS011;36711;51.972;21.204;2023-01-04T10:57:06;6.50;;;5.10;;
50745;SDS011;36711;51.972;21.204;2023-01-04T11:04:36;10.90;;;6.30;;
50745;SDS011;36711;51.972;21.204;2023-01-04T11:07:09;7.90;;;5.40;;
50745;SDS011;36711;51.972;21.204;2023-01-04T11:09:58;8.80;;;6.30;;
50745;SDS011;36711;51.972;21.204;2023-01-04T11:12:28;7.60;;;5.10;;
50745;SDS011;36711;51.972;21.204;2023-01-04T11:14:57;7.70;;;5.20;;
50745;SDS011;36711;51.972;21.204;2023-01-04T11:17:25;12.50;;;6.00;;
50745;SDS011;36711;51.972;21.204;2023-01-04T11:19:55;9.30;;;5.50;;
50745;SDS011;36711;51.972;21.204;2023-01-04T11:22:27;10.60;;;6.10;;
50745;SDS011;36711;51.972;21.204;2023-01-04T11:25:00;11.20;;;5.90;;
50745;SDS011;36711;51.972;21.204;2023-01-04T11:27:51;10.80;;;6.10;;
50745;SDS011;36711;51.972;21.204;2023-01-04T11:30:23;11.00;;;6.00;;
50745;SDS011;36711;51.972;21.204;2023-01-04T11:32:54;12.60;;;7.00;;
50745;SDS011;36711;51.972;21.204;2023-01-04T11:38:26;9.30;;;7.00;;
50745;SDS011;36711;51.972;21.204;2023-01-04T11:43:25;10.10;;;6.20;;
50745;SDS011;36711;51.972;21.204;2023-01-04T11:45:56;15.80;;;9.10;;
50745;SDS011;36711;51.972;21.204;2023-01-04T11:51:01;13.80;;;6.90;;
50745;SDS011;36711;51.972;21.204;2023-01-04T11:53:31;9.50;;;6.40;;
50745;SDS011;36711;51.972;21.204;2023-01-04T11:56:07;11.90;;;6.50;;
50745;SDS011;36711;51.972;21.204;2023-01-04T11:58:36;11.00;;;6.20;;
50745;SDS011;36711;51.972;21.204;2023-01-04T12:01:05;11.20;;;6.70;;
50745;SDS011;36711;51.972;21.204;2023-01-04T12:03:46;10.80;;;6.70;;
50745;SDS011;36711;51.972;21.204;2023-01-04T12:06:19;11.90;;;6.80;;
50745;SDS011;36711;51.972;21.204;2023-01-04T12:08:49;11.80;;;6.40;;
50745;SDS011;36711;51.972;21.204;2023-01-04T12:11:23;12.10;;;6.50;;
50745;SDS011;36711;51.972;21.204;2023-01-04T12:13:53;10.90;;;6.50;;
50745;SDS011;36711;51.972;21.204;2023-01-04T12:16:28;11.40;;;6.10;;
50745;SDS011;36711;51.972;21.204;2023-01-04T12:19:04;12.00;;;6.50;;
50745;SDS011;36711;51.972;21.204;2023-01-04T12:21:34;11.90;;;6.30;;
50745;SDS011;36711;51.972;21.204;2023-01-04T12:24:03;12.10;;;6.20;;
50745;SDS011;36711;51.972;21.204;2023-01-04T12:26:38;11.30;;;5.80;;
50745;SDS011;36711;51.972;21.204;2023-01-04T12:31:53;13.00;;;6.40;;
50745;SDS011;36711;51.972;21.204;2023-01-04T12:34:42;9.90;;;5.80;;
50745;SDS011;36711;51.972;21.204;2023-01-04T12:39:59;13.10;;;6.00;;
50745;SDS011;36711;51.972;21.204;2023-01-04T12:42:28;11.20;;;5.90;;
50745;SDS011;36711;51.972;21.204;2023-01-04T12:44:57;10.10;;;5.50;;
50745;SDS011;36711;51.972;21.204;2023-01-04T12:50:16;11.40;;;5.70;;
50745;SDS011;36711;51.972;21.204;2023-01-04T12:52:57;9.80;;;5.80;;
50745;SDS011;36711;51.972;21.204;2023-01-04T12:55:49;10.50;;;5.30;;
50745;SDS011;36711;51.972;21.204;2023-01-04T13:01:21;12.10;;;5.10;;
50745;SDS011;36711;51.972;21.204;2023-01-04T13:03:53;10.80;;;4.90;;
50745;SDS011;36711;51.972;21.204;2023-01-04T13:06:30;7.80;;;4.60;;
50745;SDS011;36711;51.972;21.204;2023-01-04T13:09:01;6.00;;;4.40;;
50745;SDS011;36711;51.972;21.204;2023-01-04T13:11:35;7.60;;;4.50;;
50745;SDS011;36711;51.972;21.204;2023-01-04T13:14:13;10.50;;;3.90;;
50745;SDS011;36711;51.972;21.204;2023-01-04T13:16:46;8.50;;;4.50;;
50745;SDS011;36711;51.972;21.204;2023-01-04T13:19:20;8.00;;;4.40;;
50745;SDS011;36711;51.972;21.204;2023-01-04T13:26:50;6.70;;;4.10;;
50745;SDS011;36711;51.972;21.204;2023-01-04T13:29:21;8.40;;;4.40;;
50745;SDS011;36711;51.972;21.204;2023-01-04T13:31:57;7.90;;;4.60;;
50745;SDS011;36711;51.972;21.204;2023-01-04T13:34:37;8.00;;;4.70;;
50745;SDS011;36711;51.972;21.204;2023-01-04T13:39:39;9.80;;;5.00;;
50745;SDS011;36711;51.972;21.204;2023-01-04T13:47:49;10.80;;;4.50;;
50745;SDS011;36711;51.972;21.204;2023-01-04T13:50:24;12.00;;;5.00;;
50745;SDS011;36711;51.972;21.204;2023-01-04T13:52:54;9.50;;;4.80;;
50745;SDS011;36711;51.972;21.204;2023-01-04T13:55:35;8.40;;;5.10;;
50745;SDS011;36711;51.972;21.204;2023-01-04T13:58:05;11.00;;;4.90;;
50745;SDS011;36711;51.972;21.204;2023-01-04T14:00:35;8.40;;;4.70;;
50745;SDS011;36711;51.972;21.204;2023-01-04T14:03:13;11.00;;;5.10;;
50745;SDS011;36711;51.972;21.204;2023-01-04T14:05:45;9.80;;;4.90;;
50745;SDS011;36711;51.972;21.204;2023-01-04T14:08:17;10.90;;;4.80;;
50745;SDS011;36711;51.972;21.204;2023-01-04T14:10:47;7.80;;;4.90;;
50745;SDS011;36711;51.972;21.204;2023-01-04T14:13:16;10.10;;;5.10;;
50745;SDS011;36711;51.972;21.204;2023-01-04T14:15:46;9.40;;;5.10;;
50745;SDS011;36711;51.972;21.204;2023-01-04T14:18:23;10.00;;;5.00;;
50745;SDS011;36711;51.972;21.204;2023-01-04T14:20:53;11.20;;;4.80;;
50745;SDS011;36711;51.972;21.204;2023-01-04T14:23:31;7.90;;;4.70;;
50745;SDS011;36711;51.972;21.204;2023-01-04T14:26:01;10.50;;;4.80;;
50745;SDS011;36711;51.972;21.204;2023-01-04T14:28:31;11.50;;;4.50;;
50745;SDS011;36711;51.972;21.204;2023-01-04T14:38:40;11.10;;;4.80;;
50745;SDS011;36711;51.972;21.204;2023-01-04T14:46:37;10.10;;;5.10;;
50745;SDS011;36711;51.972;21.204;2023-01-04T14:49:06;9.60;;;5.30;;
50745;SDS011;36711;51.972;21.204;2023-01-04T14:51:43;9.30;;;4.90;;
50745;SDS011;36711;51.972;21.204;2023-01-04T14:54:14;11.10;;;5.20;;
50745;SDS011;36711;51.972;21.204;2023-01-04T14:56:53;8.90;;;5.00;;
50745;SDS011;36711;51.972;21.204;2023-01-04T14:59:23;10.60;;;5.70;;
50745;SDS011;36711;51.972;21.204;2023-01-04T15:01:53;12.60;;;5.50;;
50745;SDS011;36711;51.972;21.204;2023-01-04T15:04:23;10.00;;;5.40;;
50745;SDS011;36711;51.972;21.204;2023-01-04T15:07:01;9.50;;;5.40;;
50745;SDS011;36711;51.972;21.204;2023-01-04T15:09:30;11.50;;;5.50;;
50745;SDS011;36711;51.972;21.204;2023-01-04T15:11:59;13.50;;;5.90;;
50745;SDS011;36711;51.972;21.204;2023-01-04T15:14:27;12.70;;;5.50;;
50745;SDS011;36711;51.972;21.204;2023-01-04T15:16:56;12.30;;;5.80;;
50745;SDS011;36711;51.972;21.204;2023-01-04T15:19:25;9.60;;;5.60;;
50745;SDS011;36711;51.972;21.204;2023-01-04T15:21:54;11.90;;;6.10;;
50745;SDS011;36711;51.972;21.204;2023-01-04T15:24:22;12.00;;;6.00;;
50745;SDS011;36711;51.972;21.204;2023-01-04T15:26:51;9.10;;;5.00;;
50745;SDS011;36711;51.972;21.204;2023-01-04T15:29:20;12.00;;;6.20;;
50745;SDS011;36711;51.972;21.204;2023-01-04T15:31:49;15.40;;;5.90;;
50745;SDS011;36711;51.972;21.204;2023-01-04T15:34:18;13.90;;;6.30;;
50745;SDS011;36711;51.972;21.204;2023-01-04T15:36:49;13.20;;;6.10;;
50745;SDS011;36711;51.972;21.204;2023-01-04T15:39:17;10.50;;;5.90;;
50745;SDS011;36711;51.972;21.204;2023-01-04T15:41:46;14.90;;;6.80;;
50745;SDS011;36711;51.972;21.204;2023-01-04T15:44:34;11.10;;;6.00;;
50745;SDS011;36711;51.972;21.204;2023-01-04T15:47:03;10.70;;;6.10;;
50745;SDS011;36711;51.972;21.204;2023-01-04T15:49:32;12.00;;;6.40;;
50745;SDS011;36711;51.972;21.204;2023-01-04T15:52:00;11.30;;;6.20;;
50745;SDS011;36711;51.972;21.204;2023-01-04T15:54:29;9.90;;;5.50;;
50745;SDS011;36711;51.972;21.204;2023-01-04T15:56:58;12.70;;;6.20;;
50745;SDS011;36711;51.972;21.204;2023-01-04T15:59:27;12.90;;;7.10;;
50745;SDS011;36711;51.972;21.204;2023-01-04T16:01:56;13.00;;;6.00;;
50745;SDS011;36711;51.972;21.204;2023-01-04T16:04:25;14.60;;;6.10;;
50745;SDS011;36711;51.972;21.204;2023-01-04T16:06:54;9.20;;;5.30;;
50745;SDS011;36711;51.972;21.204;2023-01-04T16:09:23;10.00;;;5.70;;
50745;SDS011;36711;51.972;21.204;2023-01-04T16:11:52;13.80;;;6.10;;
50745;SDS011;36711;51.972;21.204;2023-01-04T16:14:39;10.90;;;5.80;;
50745;SDS011;36711;51.972;21.204;2023-01-04T16:17:08;12.40;;;5.80;;
50745;SDS011;36711;51.972;21.204;2023-01-04T16:19:37;11.30;;;5.20;;
50745;SDS011;36711;51.972;21.204;2023-01-04T16:22:05;12.20;;;5.60;;
50745;SDS011;36711;51.972;21.204;2023-01-04T16:24:34;10.60;;;5.60;;
50745;SDS011;36711;51.972;21.204;2023-01-04T16:27:23;11.50;;;5.20;;
50745;SDS011;36711;51.972;21.204;2023-01-04T16:29:58;11.50;;;5.00;;
50745;SDS011;36711;51.972;21.204;2023-01-04T16:32:27;10.90;;;5.30;;
50745;SDS011;36711;51.972;21.204;2023-01-04T16:34:56;8.30;;;4.80;;
50745;SDS011;36711;51.972;21.204;2023-01-04T16:37:25;8.70;;;5.10;;
50745;SDS011;36711;51.972;21.204;2023-01-04T16:39:55;6.80;;;4.10;;
50745;SDS011;36711;51.972;21.204;2023-01-04T16:42:39;6.90;;;4.10;;
50745;SDS011;36711;51.972;21.204;2023-01-04T16:45:08;8.60;;;4.30;;